Time;durP1;ratioP1;P1;durP2;ratioP2;P2;SDS_P1;SDS_P2;PMS_P1;PMS_P2;Temp;Humidity;BMP_temperature;BMP_pressure;BME280_temperature;BME280_humidity;BME280_pressure;Samples;Min_cycle;Max_cycle;Signal;HPM_P1;HPM_P2
2022/05/31 10:04:49;;;;;;;4.50;1.00;;;15.40;90.80;;;;;;5050242;28;20408;-49
2022/05/31 10:07:16;;;;;;;3.00;1.17;;;15.50;91.00;;;;;;5054090;28;20059;-53
2022/05/31 10:09:48;;;;;;;3.10;1.08;;;15.60;91.30;;;;;;5045596;28;20056;-52
2022/05/31 10:12:15;;;;;;;3.90;1.60;;;15.70;90.60;;;;;;5046181;28;20119;-53
2022/05/31 10:14:42;;;;;;;2.03;1.00;;;15.90;90.80;;;;;;5047438;28;20504;-50
2022/05/31 10:17:09;;;;;;;6.22;1.30;;;16.00;90.20;;;;;;5045708;28;20392;-49
2022/05/31 10:19:36;;;;;;;3.03;1.02;;;16.00;88.70;;;;;;5049887;28;20389;-50
2022/05/31 10:22:02;;;;;;;3.58;1.20;;;16.00;88.40;;;;;;5048969;28;20037;-52
2022/05/31 10:24:49;;;;;;;3.45;1.20;;;15.90;90.00;;;;;;5041365;28;20072;-52
2022/05/31 10:27:39;;;;;;;2.95;1.10;;;15.90;89.70;;;;;;5046865;28;20049;-51
2022/05/31 10:30:09;;;;;;;5.03;1.67;;;16.10;91.10;;;;;;5046255;28;20484;-51
2022/05/31 10:32:59;;;;;;;4.97;1.20;;;16.30;91.40;;;;;;5045893;28;20057;-48
2022/05/31 10:35:26;;;;;;;2.97;1.08;;;16.30;90.20;;;;;;5050992;28;20056;-52
2022/05/31 10:37:55;;;;;;;3.13;1.10;;;16.40;90.00;;;;;;5050984;28;20528;-51
2022/05/31 10:40:22;;;;;;;3.22;1.20;;;16.50;86.50;;;;;;5048485;28;20053;-53
2022/05/31 10:42:49;;;;;;;3.25;1.10;;;16.80;86.80;;;;;;5054651;28;20108;-54
2022/05/31 10:45:16;;;;;;;4.03;1.13;;;17.00;86.10;;;;;;5054032;28;20041;-47
2022/05/31 10:47:43;;;;;;;4.75;1.05;;;17.00;84.50;;;;;;5049349;28;20128;-52
2022/05/31 10:50:10;;;;;;;3.22;1.40;;;17.10;85.50;;;;;;5049396;28;20047;-53
2022/05/31 10:52:37;;;;;;;3.78;0.88;;;17.00;84.40;;;;;;5053319;28;20100;-53
2022/05/31 10:55:04;;;;;;;2.95;1.10;;;17.00;85.30;;;;;;5050533;28;20041;-52
2022/05/31 10:57:31;;;;;;;3.03;1.13;;;17.00;85.40;;;;;;5050003;28;20130;-50
2022/05/31 10:59:57;;;;;;;3.45;1.10;;;17.00;84.80;;;;;;5041359;28;20503;-53
2022/05/31 11:02:24;;;;;;;4.50;1.27;;;16.80;85.80;;;;;;5048714;28;20045;-51
2022/05/31 11:04:51;;;;;;;2.97;1.00;;;16.60;87.50;;;;;;5049712;28;20471;-47
2022/05/31 11:07:18;;;;;;;2.75;0.90;;;16.50;86.60;;;;;;5051865;28;20555;-54
2022/05/31 11:12:30;;;;;;;4.13;1.20;;;16.40;87.30;;;;;;5048214;28;20064;-49
2022/05/31 11:14:57;;;;;;;3.00;1.30;;;16.40;88.00;;;;;;5041836;28;20038;-51
2022/05/31 11:17:24;;;;;;;3.15;1.20;;;16.40;88.10;;;;;;5035983;28;20041;-57
2022/05/31 11:19:50;;;;;;;2.35;0.90;;;16.40;87.00;;;;;;5035794;28;20064;-48
2022/05/31 11:22:17;;;;;;;3.80;1.00;;;16.40;83.90;;;;;;5035926;28;20044;-51
2022/05/31 11:24:44;;;;;;;2.70;0.90;;;16.40;85.20;;;;;;5034255;28;20115;-56
2022/05/31 11:27:10;;;;;;;2.55;0.98;;;16.50;83.50;;;;;;5035822;28;20048;-53
2022/05/31 11:29:37;;;;;;;2.22;0.75;;;16.50;82.10;;;;;;5035650;28;20473;-52
2022/05/31 11:32:04;;;;;;;2.45;1.00;;;16.50;82.20;;;;;;5035739;28;20073;-50
2022/05/31 11:34:31;;;;;;;3.03;1.00;;;16.70;83.30;;;;;;5035375;28;20120;-50
2022/05/31 11:36:58;;;;;;;2.95;1.10;;;16.90;81.60;;;;;;5035389;28;20045;-50
2022/05/31 11:39:25;;;;;;;1.48;0.80;;;17.00;80.70;;;;;;5035699;28;20092;-51
2022/05/31 11:41:53;;;;;;;3.70;1.00;;;17.00;81.90;;;;;;5034952;28;20064;-55
2022/05/31 11:44:20;;;;;;;3.33;1.00;;;17.20;82.70;;;;;;5035278;28;20111;-54
2022/05/31 11:46:47;;;;;;;1.88;0.95;;;17.40;82.20;;;;;;5035180;28;20045;-49
2022/05/31 11:49:14;;;;;;;2.95;1.02;;;17.30;78.40;;;;;;5035362;28;20041;-53
2022/05/31 11:51:40;;;;;;;1.88;0.93;;;17.10;79.90;;;;;;5035373;28;20044;-52
2022/05/31 11:54:07;;;;;;;6.55;1.35;;;17.00;81.10;;;;;;5035076;28;20436;-53
2022/05/31 11:56:34;;;;;;;8.70;1.83;;;16.80;84.70;;;;;;5035068;28;20392;-51
2022/05/31 11:59:00;;;;;;;10.68;2.15;;;15.90;94.20;;;;;;5035221;28;20045;-56
2022/05/31 12:01:27;;;;;;;6.60;1.63;;;14.60;95.50;;;;;;5034333;28;20043;-54
2022/05/31 12:03:55;;;;;;;3.88;1.73;;;14.00;98.00;;;;;;5034554;28;20409;-54
2022/05/31 12:06:22;;;;;;;6.93;1.63;;;13.70;99.30;;;;;;5034949;28;20424;-53
2022/05/31 12:08:49;;;;;;;5.13;1.70;;;13.50;99.90;;;;;;5035009;28;20052;-55
2022/05/31 12:11:15;;;;;;;5.22;1.48;;;13.40;99.90;;;;;;5035054;28;20038;-52
2022/05/31 12:13:44;;;;;;;5.32;1.90;;;13.60;99.90;;;;;;5034728;28;20076;-52
2022/05/31 12:16:11;;;;;;;2.97;1.35;;;13.60;99.90;;;;;;5034378;28;20037;-53
2022/05/31 12:18:38;;;;;;;3.20;1.40;;;13.60;99.50;;;;;;5035306;28;20042;-58
2022/05/31 12:21:04;;;;;;;3.20;1.30;;;13.50;99.90;;;;;;5034696;28;20049;-56
2022/05/31 12:23:32;;;;;;;2.85;1.30;;;13.60;99.50;;;;;;5034648;28;20045;-51
2022/05/31 12:25:59;;;;;;;5.20;1.40;;;13.90;99.30;;;;;;5033422;28;20050;-52
2022/05/31 12:28:25;;;;;;;4.88;1.52;;;14.10;99.10;;;;;;5034311;28;20103;-53
2022/05/31 12:30:52;;;;;;;3.25;1.75;;;14.30;97.10;;;;;;5034496;28;20056;-54
2022/05/31 12:33:19;;;;;;;4.20;1.80;;;14.30;99.20;;;;;;5034470;28;20068;-53
2022/05/31 12:35:46;;;;;;;3.70;1.52;;;14.30;98.10;;;;;;5032919;28;20040;-51
2022/05/31 12:38:12;;;;;;;3.63;1.70;;;14.20;99.20;;;;;;5033421;28;20500;-52
2022/05/31 12:40:40;;;;;;;3.45;1.27;;;14.20;99.20;;;;;;5033804;28;20050;-49
2022/05/31 12:43:07;;;;;;;3.97;1.30;;;14.20;99.90;;;;;;5033714;28;20052;-56
2022/05/31 12:45:34;;;;;;;3.65;1.13;;;14.20;99.50;;;;;;5030473;28;20046;-51
2022/05/31 12:48:01;;;;;;;5.28;1.48;;;14.20;99.60;;;;;;5031850;28;20041;-50
2022/05/31 12:50:28;;;;;;;5.95;1.30;;;14.30;99.90;;;;;;5034575;28;20063;-54
2022/05/31 12:53:17;;;;;;;4.18;1.20;;;14.30;99.30;;;;;;5035437;28;20099;-54
2022/05/31 12:55:44;;;;;;;2.78;1.10;;;14.40;99.80;;;;;;5035038;28;20445;-53
2022/05/31 13:00:56;;;;;;;5.60;1.25;;;14.70;99.20;;;;;;5034908;28;20041;-52
2022/05/31 13:03:23;;;;;;;2.20;0.90;;;14.90;98.90;;;;;;5027380;28;20057;-53
2022/05/31 13:05:50;;;;;;;5.22;1.08;;;15.10;98.40;;;;;;5027513;28;20042;-56
2022/05/31 13:08:17;;;;;;;1.77;0.80;;;15.30;98.20;;;;;;5027643;28;20049;-52
2022/05/31 13:21:47;;;;;;;1.42;0.70;;;15.70;94.60;;;;;;5033671;28;20067;-50
2022/05/31 13:24:14;;;;;;;2.10;0.80;;;15.80;95.50;;;;;;5033501;28;20087;-55
2022/05/31 13:26:42;;;;;;;3.00;0.88;;;15.80;95.80;;;;;;5033502;28;20111;-51
2022/05/31 13:29:10;;;;;;;2.38;0.88;;;15.70;94.20;;;;;;5033639;28;20542;-50
2022/05/31 13:31:37;;;;;;;3.50;0.80;;;15.70;94.70;;;;;;5033763;28;20124;-51
2022/05/31 13:34:08;;;;;;;2.92;0.80;;;15.70;94.30;;;;;;5033878;28;20037;-52
2022/05/31 13:36:35;;;;;;;3.97;0.93;;;15.70;94.30;;;;;;5033999;28;20041;-55
2022/05/31 13:39:02;;;;;;;3.70;1.00;;;15.70;95.80;;;;;;5032885;28;20048;-53
2022/05/31 13:41:29;;;;;;;3.38;0.82;;;15.80;94.90;;;;;;5029796;28;20546;-56
2022/05/31 13:43:55;;;;;;;1.92;0.82;;;15.80;95.30;;;;;;5031955;28;20493;-54
2022/05/31 13:46:22;;;;;;;2.60;0.80;;;15.80;95.40;;;;;;5032827;28;20496;-54
2022/05/31 13:48:50;;;;;;;4.18;0.90;;;15.80;96.00;;;;;;5033128;28;20086;-53
2022/05/31 13:51:17;;;;;;;2.53;0.60;;;15.90;94.90;;;;;;5032925;28;20046;-50
2022/05/31 13:53:43;;;;;;;1.20;0.57;;;16.00;95.20;;;;;;5033003;28;20044;-54
2022/05/31 13:56:10;;;;;;;2.25;0.70;;;16.10;95.20;;;;;;5029713;28;20087;-52
2022/05/31 13:58:37;;;;;;;2.15;0.75;;;16.20;95.50;;;;;;5032792;28;20042;-56
2022/05/31 14:01:04;;;;;;;3.20;0.80;;;16.30;94.30;;;;;;5032232;28;20041;-51
2022/05/31 14:03:30;;;;;;;1.20;0.68;;;16.40;93.90;;;;;;5032347;28;20064;-54
2022/05/31 14:05:58;;;;;;;2.50;1.42;;;16.50;93.90;;;;;;5032386;28;20107;-48
2022/05/31 14:08:25;;;;;;;3.28;1.83;;;16.60;94.00;;;;;;5032768;28;20041;-50
2022/05/31 14:10:51;;;;;;;2.97;2.00;;;16.70;93.10;;;;;;5032628;28;20049;-53
2022/05/31 14:13:18;;;;;;;2.05;1.48;;;16.70;93.10;;;;;;5032448;28;20049;-49
2022/05/31 14:15:45;;;;;;;2.05;1.15;;;16.60;93.30;;;;;;5031346;28;20041;-55
2022/05/31 14:18:12;;;;;;;4.20;1.15;;;16.50;93.40;;;;;;5032619;28;20052;-54
2022/05/31 14:20:38;;;;;;;2.67;0.85;;;16.30;93.00;;;;;;5031465;28;20091;-54
2022/05/31 14:23:05;;;;;;;4.82;0.80;;;16.10;92.20;;;;;;5032431;28;20042;-53
2022/05/31 14:25:38;;;;;;;10.70;1.75;;;15.60;91.60;;;;;;5032594;28;20050;-51
2022/05/31 14:28:05;;;;;;;13.60;2.10;;;14.30;97.20;;;;;;5032438;28;20480;-53
2022/05/31 14:30:34;;;;;;;8.07;1.40;;;12.70;99.90;;;;;;5032672;28;20041;-51
2022/05/31 14:33:01;;;;;;;9.13;1.00;;;12.00;99.90;;;;;;5032324;28;20092;-50
2022/05/31 14:35:27;;;;;;;5.32;1.10;;;11.70;99.90;;;;;;5032491;28;20037;-52
2022/05/31 14:37:54;;;;;;;2.03;0.80;;;11.60;99.90;;;;;;5032558;28;20042;-47
2022/05/31 14:40:21;;;;;;;3.17;1.00;;;11.70;99.90;;;;;;5032469;28;20473;-55
2022/05/31 14:42:48;;;;;;;1.75;0.65;;;12.00;99.90;;;;;;5032294;28;20104;-50
2022/05/31 14:45:14;;;;;;;2.25;0.90;;;12.30;99.90;;;;;;5032414;28;20047;-57
2022/05/31 14:47:41;;;;;;;2.72;0.80;;;12.50;99.90;;;;;;5032474;28;20049;-48
2022/05/31 14:50:08;;;;;;;3.92;0.70;;;12.80;99.90;;;;;;5033869;28;20041;-49
2022/05/31 14:52:35;;;;;;;5.93;4.40;;;13.00;99.90;;;;;;5035987;28;20056;-55
2022/05/31 14:55:02;;;;;;;3.20;1.92;;;13.40;99.90;;;;;;5035829;28;20096;-54
2022/05/31 14:58:37;;;;;;;1.98;1.05;;;13.70;99.90;;;;;;5036210;28;20041;-52
2022/05/31 15:00:19;;;;;;;2.10;1.00;;;13.80;99.90;;;;;;5035792;28;20037;-53
2022/05/31 15:02:47;;;;;;;3.38;1.17;;;13.80;99.90;;;;;;5035671;28;20064;-51
2022/05/31 15:05:13;;;;;;;4.22;1.00;;;13.90;99.90;;;;;;5035703;28;20053;-55
2022/05/31 15:07:40;;;;;;;2.83;0.85;;;13.90;99.90;;;;;;5035694;28;20103;-56
2022/05/31 15:10:22;;;;;;;2.90;1.02;;;13.90;99.90;;;;;;5035956;28;20045;-60
2022/05/31 15:21:05;;;;;;;2.08;1.08;;;13.90;99.90;;;;;;5034565;28;20099;-55
2022/05/31 15:23:32;;;;;;;4.05;1.50;;;13.70;99.90;;;;;;5035385;28;20076;-54
2022/05/31 15:25:59;;;;;;;4.28;1.50;;;13.50;99.90;;;;;;5035785;28;20044;-50
2022/05/31 15:28:26;;;;;;;3.33;1.63;;;13.30;99.90;;;;;;5035139;28;20511;-56
2022/05/31 15:30:56;;;;;;;4.28;1.77;;;13.20;99.90;;;;;;5035580;28;20076;-57
2022/05/31 15:33:44;;;;;;;3.05;1.20;;;13.10;99.90;;;;;;5034502;28;20103;-55
2022/05/31 15:36:10;;;;;;;3.60;1.65;;;13.20;99.90;;;;;;5035622;28;20471;-57
2022/05/31 15:38:42;;;;;;;6.07;1.88;;;13.20;99.90;;;;;;5035516;28;20042;-59
2022/05/31 15:41:08;;;;;;;3.33;1.90;;;13.40;99.90;;;;;;5033258;28;20103;-57
2022/05/31 15:43:53;;;;;;;2.63;1.70;;;13.80;99.90;;;;;;5035101;28;20041;-57
2022/05/31 15:46:20;;;;;;;3.88;1.77;;;14.10;99.90;;;;;;5035119;28;20037;-50
2022/05/31 15:48:48;;;;;;;4.80;1.77;;;14.40;99.90;;;;;;5035222;28;20116;-59
2022/05/31 15:51:15;;;;;;;2.72;1.20;;;14.70;99.90;;;;;;5033968;28;20045;-53
2022/05/31 15:53:42;;;;;;;2.63;1.60;;;14.80;99.90;;;;;;5034768;28;20431;-58
2022/05/31 15:56:08;;;;;;;4.07;1.70;;;15.00;99.90;;;;;;5034906;28;20485;-57
2022/05/31 15:58:35;;;;;;;3.53;1.40;;;15.30;99.90;;;;;;5034113;28;20040;-53
2022/05/31 16:01:02;;;;;;;4.00;1.08;;;15.70;99.90;;;;;;5034112;28;20049;-51
2022/05/31 16:03:29;;;;;;;2.35;1.08;;;16.10;99.90;;;;;;5034821;28;20080;-54
2022/05/31 16:05:56;;;;;;;2.28;1.10;;;16.10;99.90;;;;;;5033357;28;20385;-57
2022/05/31 16:08:23;;;;;;;3.22;1.08;;;16.40;99.90;;;;;;5034925;28;20060;-57
2022/05/31 16:10:50;;;;;;;1.92;0.82;;;16.40;99.90;;;;;;5034871;28;20045;-56
2022/05/31 16:13:17;;;;;;;1.95;0.90;;;16.20;99.90;;;;;;5034539;28;20081;-57
2022/05/31 16:15:44;;;;;;;4.68;0.93;;;16.00;99.90;;;;;;5034666;28;20043;-57
2022/05/31 16:18:10;;;;;;;2.38;1.08;;;16.10;99.90;;;;;;5033084;28;20029;-53
2022/05/31 16:20:40;;;;;;;3.97;1.10;;;16.30;99.90;;;;;;5028049;28;20045;-52
2022/05/31 16:23:08;;;;;;;3.40;1.05;;;16.40;99.90;;;;;;5034442;28;20041;-57
2022/05/31 16:25:34;;;;;;;1.17;0.70;;;16.50;99.90;;;;;;5034514;28;20050;-52
2022/05/31 16:28:01;;;;;;;2.72;0.90;;;16.70;99.90;;;;;;5034480;28;20488;-57
2022/05/31 16:30:48;;;;;;;2.20;1.00;;;16.60;99.90;;;;;;5031857;28;20065;-56
2022/05/31 16:33:16;;;;;;;2.25;0.88;;;16.30;99.30;;;;;;5034452;28;20053;-57
2022/05/31 16:35:43;;;;;;;6.03;1.15;;;15.80;99.30;;;;;;5034600;28;20415;-56
2022/05/31 16:41:11;;;;;;;1.40;0.90;;;15.10;99.90;;;;;;5033240;28;20060;-52
2022/05/31 16:43:38;;;;;;;2.50;1.17;;;14.80;99.90;;;;;;5034229;28;20064;-55
2022/05/31 16:46:05;;;;;;;1.70;1.20;;;14.70;99.90;;;;;;5034358;28;20096;-57
2022/05/31 16:48:51;;;;;;;2.67;1.10;;;14.60;99.90;;;;;;5034256;28;20046;-57
2022/05/31 16:51:18;;;;;;;2.97;1.40;;;14.40;99.90;;;;;;5033686;28;20034;-55
2022/05/31 16:53:45;;;;;;;1.67;1.02;;;14.40;99.90;;;;;;5032761;28;20041;-57
2022/05/31 16:56:11;;;;;;;2.50;1.30;;;14.50;99.90;;;;;;5034057;28;20041;-57
2022/05/31 16:58:38;;;;;;;3.15;1.80;;;14.50;99.90;;;;;;5034188;28;20374;-55
2022/05/31 17:01:05;;;;;;;5.55;2.50;;;14.40;99.90;;;;;;5033828;28;20113;-57
2022/05/31 17:03:32;;;;;;;4.95;1.95;;;14.30;99.90;;;;;;5034161;28;20064;-57
2022/05/31 17:05:59;;;;;;;3.47;1.48;;;14.10;99.90;;;;;;5033261;28;20420;-57
2022/05/31 17:14:22;;;;;;;3.45;1.60;;;13.40;99.90;;;;;;5034128;28;20411;-53
2022/05/31 17:16:44;;;;;;;4.72;1.85;;;12.60;99.90;;;;;;5033792;28;20045;-52
2022/05/31 17:19:11;;;;;;;8.45;2.22;;;12.40;99.90;;;;;;5033642;28;20060;-55
2022/05/31 17:21:38;;;;;;;4.03;2.13;;;12.40;99.90;;;;;;5033540;28;20053;-58
2022/05/31 17:24:04;;;;;;;5.45;1.77;;;12.40;99.90;;;;;;5033724;28;20411;-57
2022/05/31 17:26:31;;;;;;;6.50;3.55;;;12.70;99.90;;;;;;5033637;28;20419;-56
2022/05/31 17:28:58;;;;;;;3.38;1.70;;;13.10;99.90;;;;;;5033814;28;20037;-61
2022/05/31 17:31:25;;;;;;;3.30;1.60;;;13.80;99.90;;;;;;5033545;28;20124;-56
2022/05/31 17:33:52;;;;;;;2.47;1.40;;;14.50;99.90;;;;;;5033480;28;20125;-58
2022/05/31 17:36:19;;;;;;;2.85;1.20;;;14.80;99.90;;;;;;5033382;28;20059;-57
2022/05/31 17:38:46;;;;;;;3.13;1.35;;;15.00;99.90;;;;;;5033524;28;20048;-57
2022/05/31 17:41:13;;;;;;;2.80;1.33;;;15.40;99.90;;;;;;5033289;28;20042;-56
2022/05/31 17:43:40;;;;;;;3.28;1.10;;;15.50;99.90;;;;;;5033366;28;20447;-58
2022/05/31 17:46:07;;;;;;;2.83;1.27;;;15.50;99.90;;;;;;5033377;28;20051;-57
2022/05/31 17:48:34;;;;;;;3.47;0.90;;;15.50;99.90;;;;;;5033361;28;20069;-56
2022/05/31 17:51:00;;;;;;;2.13;1.10;;;15.70;99.90;;;;;;5032897;28;20389;-50
2022/05/31 17:53:27;;;;;;;2.63;1.70;;;15.40;99.90;;;;;;5033116;28;20041;-56
2022/05/31 17:55:54;;;;;;;2.33;1.38;;;15.10;99.90;;;;;;5033464;28;20041;-57
2022/05/31 17:58:21;;;;;;;3.15;1.58;;;14.80;99.90;;;;;;5031948;28;20038;-55
2022/05/31 18:00:48;;;;;;;2.67;1.73;;;14.60;99.90;;;;;;5033073;28;20037;-59
2022/05/31 18:03:14;;;;;;;3.47;1.80;;;14.40;99.90;;;;;;5033251;28;20048;-59
2022/05/31 18:05:45;;;;;;;5.65;2.65;;;14.30;99.90;;;;;;5032446;28;20060;-53
2022/05/31 18:08:12;;;;;;;6.78;3.60;;;14.20;99.90;;;;;;5033340;28;20403;-55
2022/05/31 18:10:38;;;;;;;5.65;3.75;;;14.10;99.90;;;;;;5033447;28;20389;-58
2022/05/31 18:13:05;;;;;;;5.60;3.40;;;14.10;99.90;;;;;;5036812;28;20496;-56
2022/05/31 18:15:32;;;;;;;6.80;3.17;;;14.00;99.90;;;;;;5035321;28;20117;-57
2022/05/31 18:17:59;;;;;;;4.15;2.63;;;14.00;99.90;;;;;;5028445;28;20037;-52
2022/05/31 18:20:26;;;;;;;4.68;2.50;;;13.90;99.90;;;;;;5033489;28;20041;-54
2022/05/31 18:22:52;;;;;;;3.80;2.70;;;14.00;99.90;;;;;;5032674;28;20087;-54
2022/05/31 18:25:19;;;;;;;4.50;2.28;;;13.90;99.90;;;;;;5042994;28;20050;-53
2022/05/31 18:27:46;;;;;;;3.63;2.50;;;13.90;99.90;;;;;;5013025;28;20052;-57
2022/05/31 18:30:13;;;;;;;3.97;2.53;;;13.80;99.90;;;;;;5036936;28;20049;-58
2022/05/31 18:32:40;;;;;;;4.03;2.38;;;13.80;99.90;;;;;;5040273;28;20045;-57
2022/05/31 18:35:09;;;;;;;8.82;5.97;;;13.70;99.90;;;;;;5036623;28;20045;-54
2022/05/31 18:40:41;;;;;;;6.90;4.30;;;13.60;99.90;;;;;;5034076;28;20055;-57
2022/05/31 18:43:08;;;;;;;7.57;4.57;;;13.60;99.90;;;;;;5034450;28;20481;-56
2022/05/31 18:45:35;;;;;;;7.72;4.47;;;13.60;99.90;;;;;;5028847;28;20081;-55
2022/05/31 18:48:02;;;;;;;7.13;4.28;;;13.50;99.90;;;;;;5036397;28;20049;-50
2022/05/31 18:50:28;;;;;;;6.35;3.90;;;13.50;99.90;;;;;;5035791;28;20392;-54
2022/05/31 18:52:55;;;;;;;6.97;3.90;;;13.50;99.90;;;;;;5035513;28;20045;-54
2022/05/31 18:55:22;;;;;;;6.10;3.95;;;13.50;99.90;;;;;;5039005;28;20044;-52
2022/05/31 18:57:48;;;;;;;6.40;3.92;;;13.50;99.90;;;;;;5036839;28;20076;-59
2022/05/31 19:00:15;;;;;;;5.90;3.60;;;13.50;99.90;;;;;;5036009;28;20033;-56
2022/05/31 19:02:42;;;;;;;4.63;3.33;;;13.50;99.90;;;;;;5036193;28;20080;-55
2022/05/31 19:05:09;;;;;;;5.10;3.03;;;13.40;99.90;;;;;;5034779;28;20107;-52
2022/05/31 19:07:36;;;;;;;3.75;2.83;;;13.40;99.90;;;;;;5035580;28;20056;-54
2022/05/31 19:10:03;;;;;;;4.78;2.97;;;13.40;99.90;;;;;;5040409;28;20045;-58
2022/05/31 19:12:31;;;;;;;3.75;2.90;;;13.30;99.90;;;;;;5037238;28;20447;-59
2022/05/31 19:14:58;;;;;;;4.22;2.70;;;13.30;99.90;;;;;;5039498;28;20047;-56
2022/05/31 19:17:25;;;;;;;4.80;2.72;;;13.20;99.90;;;;;;5036686;28;20037;-53
2022/05/31 19:19:51;;;;;;;6.18;2.55;;;13.10;99.90;;;;;;5035241;28;20495;-57
2022/05/31 19:22:18;;;;;;;4.10;2.10;;;13.10;99.90;;;;;;5036735;28;20553;-54
2022/05/31 19:24:45;;;;;;;4.50;2.72;;;13.00;99.90;;;;;;5033769;28;20377;-59
2022/05/31 19:27:12;;;;;;;6.97;2.28;;;12.90;99.90;;;;;;5035733;28;20481;-56
2022/05/31 19:29:38;;;;;;;5.38;2.60;;;12.90;99.90;;;;;;5032430;28;20068;-54
2022/05/31 19:32:05;;;;;;;3.75;2.40;;;12.90;99.90;;;;;;5033792;28;20041;-58
2022/05/31 19:34:32;;;;;;;3.90;2.55;;;12.80;99.90;;;;;;5026209;28;20041;-57
2022/05/31 19:36:59;;;;;;;4.30;2.70;;;12.80;99.90;;;;;;5036002;28;20038;-59
2022/05/31 19:39:25;;;;;;;5.00;3.10;;;12.90;99.90;;;;;;5037367;28;20048;-57
2022/05/31 19:41:54;;;;;;;4.55;2.80;;;12.90;99.90;;;;;;5025835;28;20088;-55
2022/05/31 19:44:21;;;;;;;4.60;2.80;;;12.90;99.90;;;;;;5030271;28;20107;-53
2022/05/31 19:46:48;;;;;;;3.75;2.92;;;12.90;99.90;;;;;;5034180;28;20053;-54
2022/05/31 19:49:14;;;;;;;3.85;2.67;;;12.90;99.90;;;;;;5029250;28;20103;-58
2022/05/31 19:51:41;;;;;;;3.55;2.75;;;12.90;99.90;;;;;;5034437;28;20034;-57
2022/05/31 19:54:08;;;;;;;4.07;2.90;;;13.00;99.90;;;;;;5031382;28;20404;-56
2022/05/31 19:56:35;;;;;;;3.85;2.50;;;13.00;99.90;;;;;;5028194;28;20555;-53
2022/05/31 19:59:01;;;;;;;3.53;2.72;;;12.90;99.90;;;;;;5033318;28;20048;-59
